createdAt,value
2023-01-11T00:00:20.466Z,9.10
2023-01-11T00:03:09.252Z,15.00
2023-01-11T00:05:42.960Z,9.20
2023-01-11T00:08:12.993Z,12.20
2023-01-11T00:10:41.711Z,12.00
2023-01-11T00:13:10.348Z,12.00
2023-01-11T00:15:40.768Z,12.00
2023-01-11T00:18:10.465Z,9.30
2023-01-11T00:20:40.691Z,8.00
2023-01-11T00:23:09.711Z,9.90
2023-01-11T00:25:38.813Z,7.80
2023-01-11T00:28:07.702Z,10.70
2023-01-11T00:30:36.480Z,9.70
2023-01-11T00:33:05.170Z,9.70
2023-01-11T00:35:33.958Z,13.40
2023-01-11T00:38:02.436Z,9.00
2023-01-11T00:40:31.147Z,8.20
2023-01-11T00:43:18.240Z,9.70
2023-01-11T00:46:18.943Z,8.50
2023-01-11T00:48:47.672Z,7.80
2023-01-11T00:51:16.767Z,10.40
2023-01-11T00:53:48.582Z,7.50
2023-01-11T00:56:17.207Z,9.20
2023-01-11T00:58:45.895Z,11.00
2023-01-11T01:01:14.535Z,9.40
2023-01-11T01:03:43.064Z,6.80
2023-01-11T01:06:11.653Z,10.90
2023-01-11T01:08:40.233Z,8.50
2023-01-11T01:11:09.025Z,11.70
2023-01-11T01:13:56.552Z,11.10
2023-01-11T01:16:25.235Z,10.70
2023-01-11T01:18:57.404Z,6.70
2023-01-11T01:21:27.386Z,7.80
2023-01-11T01:23:56.527Z,7.80
2023-01-11T01:26:25.108Z,9.50
2023-01-11T01:28:53.690Z,7.80
2023-01-11T01:31:22.416Z,7.60
2023-01-11T01:33:50.960Z,7.70
2023-01-11T01:36:19.749Z,5.70
2023-01-11T01:38:48.441Z,9.00
2023-01-11T01:41:17.228Z,10.00
2023-01-11T01:43:58.951Z,9.00
2023-01-11T01:46:34.180Z,9.00
2023-01-11T01:49:13.907Z,10.10
2023-01-11T01:51:50.969Z,8.00
2023-01-11T01:54:25.963Z,6.40
2023-01-11T01:57:04.005Z,6.80
2023-01-11T01:59:33.841Z,7.00
2023-01-11T02:02:02.605Z,8.60
2023-01-11T02:04:40.332Z,7.30
2023-01-11T02:07:20.075Z,8.30
2023-01-11T02:10:16.102Z,7.80
2023-01-11T02:13:09.179Z,6.90
2023-01-11T02:15:39.230Z,8.30
2023-01-11T02:18:13.092Z,6.90
2023-01-11T02:21:30.337Z,7.00
2023-01-11T02:24:39.144Z,9.70
2023-01-11T02:27:50.948Z,8.60
2023-01-11T02:31:01.957Z,6.20
2023-01-11T02:34:14.534Z,6.60
2023-01-11T02:37:35.652Z,7.90
2023-01-11T02:40:25.845Z,7.70
2023-01-11T02:43:37.845Z,10.40
2023-01-11T02:46:17.420Z,7.20
2023-01-11T02:49:09.011Z,6.90
2023-01-11T02:51:47.659Z,5.90
2023-01-11T02:54:19.845Z,10.00
2023-01-11T02:56:53.512Z,6.90
2023-01-11T02:59:28.392Z,8.40
2023-01-11T03:01:56.935Z,5.50
2023-01-11T03:04:37.810Z,11.80
2023-01-11T03:07:42.536Z,8.60
2023-01-11T03:11:14.928Z,9.00
2023-01-11T03:14:11.144Z,7.70
2023-01-11T03:17:26.015Z,5.90
2023-01-11T03:20:28.903Z,10.30
2023-01-11T03:23:46.122Z,8.40
2023-01-11T03:26:45.426Z,11.10
2023-01-11T03:29:31.521Z,9.80
2023-01-11T03:32:19.152Z,7.10
2023-01-11T03:35:28.799Z,10.90
2023-01-11T03:38:11.729Z,7.50
2023-01-11T03:40:52.493Z,9.00
2023-01-11T03:43:24.459Z,12.30
2023-01-11T03:46:05.254Z,13.40
2023-01-11T03:48:51.682Z,9.70
2023-01-11T03:51:28.135Z,7.70
2023-01-11T03:54:05.063Z,11.30
2023-01-11T03:57:23.744Z,10.00
2023-01-11T03:59:52.635Z,13.00
2023-01-11T04:02:27.657Z,12.00
2023-01-11T04:04:56.355Z,12.80
2023-01-11T04:07:25.144Z,11.60
2023-01-11T04:09:53.732Z,15.90
2023-01-11T04:12:22.317Z,13.50
2023-01-11T04:14:51.030Z,17.60
2023-01-11T04:17:19.893Z,16.40
2023-01-11T04:19:48.683Z,12.50
2023-01-11T04:22:17.268Z,8.60
2023-01-11T04:24:45.947Z,8.70
2023-01-11T04:27:14.427Z,9.00
2023-01-11T04:29:43.017Z,9.80
2023-01-11T04:32:11.600Z,14.20
2023-01-11T04:34:40.191Z,13.00
2023-01-11T04:37:09.491Z,9.10
2023-01-11T04:39:39.515Z,9.50
2023-01-11T04:42:18.743Z,8.20
2023-01-11T04:44:50.112Z,11.00
2023-01-11T04:47:22.369Z,10.00
2023-01-11T04:49:51.965Z,11.80
2023-01-11T04:52:21.479Z,13.50
2023-01-11T04:54:52.717Z,10.00
2023-01-11T04:57:21.411Z,9.20
2023-01-11T04:59:50.190Z,12.10
2023-01-11T05:02:19.289Z,12.00
2023-01-11T05:04:47.972Z,9.60
2023-01-11T05:07:16.572Z,10.60
2023-01-11T05:09:45.148Z,15.50
2023-01-11T05:12:14.031Z,11.20
2023-01-11T05:14:42.625Z,12.70
2023-01-11T05:17:16.121Z,10.10
2023-01-11T05:19:44.814Z,8.10
2023-01-11T05:22:13.397Z,13.50
2023-01-11T05:24:41.975Z,11.00
2023-01-11T05:27:10.872Z,8.70
2023-01-11T05:29:39.485Z,11.00
2023-01-11T05:32:08.242Z,14.20
2023-01-11T05:34:36.824Z,10.00
2023-01-11T05:37:05.410Z,17.00
2023-01-11T05:39:33.999Z,43.80
2023-01-11T05:42:02.591Z,30.90
2023-01-11T05:44:50.413Z,60.70
2023-01-11T05:47:18.997Z,63.80
2023-01-11T05:49:47.588Z,27.90
2023-01-11T05:52:16.473Z,21.30
2023-01-11T05:54:45.064Z,17.10
2023-01-11T05:57:13.952Z,11.40
2023-01-11T05:59:42.536Z,16.10
2023-01-11T06:02:11.544Z,56.40
2023-01-11T06:04:40.221Z,29.10
2023-01-11T06:07:10.341Z,17.50
2023-01-11T06:09:39.023Z,19.10
2023-01-11T06:12:07.811Z,34.50
2023-01-11T06:14:38.178Z,22.40
2023-01-11T06:17:07.141Z,33.20
2023-01-11T06:19:35.822Z,18.30
2023-01-11T06:22:04.609Z,18.70
2023-01-11T06:24:33.295Z,15.60
2023-01-11T06:27:01.979Z,23.10
2023-01-11T06:29:30.567Z,17.00
2023-01-11T06:31:59.251Z,17.30
2023-01-11T06:34:28.045Z,32.00
2023-01-11T06:36:56.632Z,17.70
2023-01-11T06:39:25.311Z,30.20
2023-01-11T06:41:53.896Z,11.30
2023-01-11T06:44:22.583Z,19.00
2023-01-11T06:46:51.169Z,12.60
2023-01-11T06:49:19.755Z,11.10
2023-01-11T06:51:48.339Z,11.90
2023-01-11T06:54:22.252Z,19.50
2023-01-11T06:56:50.741Z,33.70
2023-01-11T06:59:19.413Z,24.30
2023-01-11T07:01:48.070Z,30.70
2023-01-11T07:04:18.948Z,27.20
2023-01-11T07:06:47.524Z,19.60
2023-01-11T07:09:16.217Z,13.00
2023-01-11T07:11:44.807Z,18.60
2023-01-11T07:14:15.636Z,12.40
2023-01-11T07:16:44.216Z,35.90
2023-01-11T07:19:13.005Z,15.70
2023-01-11T07:21:41.721Z,17.90
2023-01-11T07:24:10.686Z,16.30
2023-01-11T07:26:41.624Z,13.00
2023-01-11T07:29:11.131Z,19.30
2023-01-11T07:31:39.642Z,14.50
2023-01-11T07:34:09.742Z,15.00
2023-01-11T07:36:39.892Z,10.10
2023-01-11T07:39:08.650Z,13.60
2023-01-11T07:41:56.377Z,16.40
2023-01-11T07:44:24.972Z,17.50
2023-01-11T07:46:53.701Z,14.70
2023-01-11T07:49:22.541Z,14.80
2023-01-11T07:51:52.459Z,12.50
2023-01-11T07:54:21.250Z,10.80
2023-01-11T07:56:49.930Z,9.70
2023-01-11T07:59:18.618Z,10.50
2023-01-11T08:01:47.309Z,10.30
2023-01-11T08:04:15.992Z,9.90
2023-01-11T08:06:44.577Z,16.20
2023-01-11T08:09:13.680Z,17.30
2023-01-11T08:12:00.697Z,18.70
2023-01-11T08:14:41.570Z,11.70
2023-01-11T08:17:14.437Z,14.10
2023-01-11T08:19:43.899Z,13.80
2023-01-11T08:22:12.648Z,12.20
2023-01-11T08:24:41.459Z,12.80
2023-01-11T08:27:10.161Z,12.90
2023-01-11T08:29:40.156Z,9.20
2023-01-11T08:32:08.721Z,9.60
2023-01-11T08:34:37.609Z,12.50
2023-01-11T08:37:06.607Z,10.40
2023-01-11T08:39:35.192Z,12.80
2023-01-11T08:42:03.978Z,13.60
2023-01-11T08:44:34.525Z,7.90
2023-01-11T08:47:04.023Z,11.30
2023-01-11T08:49:32.595Z,9.80
2023-01-11T08:52:01.181Z,9.20
2023-01-11T08:54:29.870Z,11.60
2023-01-11T08:56:58.453Z,10.80
2023-01-11T08:59:27.249Z,12.80
2023-01-11T09:01:55.938Z,8.30
2023-01-11T09:04:25.793Z,11.60
2023-01-11T09:06:55.044Z,10.00
2023-01-11T09:09:23.851Z,9.40
2023-01-11T09:11:55.133Z,8.70
2023-01-11T09:14:26.567Z,12.10
2023-01-11T09:16:55.744Z,8.30
2023-01-11T09:19:24.623Z,10.70
2023-01-11T09:21:53.620Z,7.50
2023-01-11T09:24:22.095Z,9.10
2023-01-11T09:26:50.943Z,8.40
2023-01-11T09:29:20.633Z,10.10
2023-01-11T09:31:49.298Z,10.20
2023-01-11T09:34:18.076Z,10.50
2023-01-11T09:36:49.160Z,8.80
2023-01-11T09:39:20.785Z,8.50
2023-01-11T09:42:14.556Z,9.10
2023-01-11T09:45:01.328Z,8.80
2023-01-11T09:48:11.952Z,10.40
2023-01-11T09:50:45.766Z,8.80
2023-01-11T09:53:32.856Z,11.40
2023-01-11T09:56:05.552Z,8.70
2023-01-11T09:59:06.793Z,7.20
2023-01-11T10:01:56.056Z,11.20
2023-01-11T10:04:50.391Z,9.50
2023-01-11T10:07:40.539Z,12.10
2023-01-11T10:18:32.760Z,8.90
2023-01-11T10:18:33.077Z,9.40
2023-01-11T10:20:41.205Z,8.60
2023-01-11T10:23:47.543Z,9.40
2023-01-11T10:26:29.454Z,13.00
2023-01-11T10:29:21.976Z,11.60
2023-01-11T10:32:00.889Z,10.80
2023-01-11T10:35:01.009Z,8.10
2023-01-11T10:37:50.393Z,10.50
2023-01-11T10:41:00.235Z,16.10
2023-01-11T10:43:33.061Z,9.00
2023-01-11T10:46:18.405Z,8.30
2023-01-11T10:48:47.960Z,8.60
2023-01-11T10:51:32.056Z,10.30
2023-01-11T10:54:14.717Z,9.40
2023-01-11T10:57:11.506Z,11.10
2023-01-11T11:00:23.717Z,11.90
2023-01-11T11:03:42.584Z,10.70
2023-01-11T11:06:30.521Z,6.90
2023-01-11T11:09:17.226Z,13.90
2023-01-11T11:11:54.620Z,7.50
2023-01-11T11:14:47.263Z,9.50
2023-01-11T11:17:25.990Z,7.10
2023-01-11T11:19:54.581Z,6.40
2023-01-11T11:22:23.272Z,8.50
2023-01-11T11:25:23.185Z,8.50
2023-01-11T11:27:58.726Z,7.10
2023-01-11T11:30:59.055Z,8.30
2023-01-11T11:33:38.100Z,15.60
2023-01-11T11:36:13.215Z,14.50
2023-01-11T11:39:02.618Z,8.60
2023-01-11T11:41:46.498Z,8.60
2023-01-11T11:44:28.132Z,16.80
2023-01-11T11:46:58.246Z,12.80
2023-01-11T11:49:28.721Z,13.30
2023-01-11T11:51:58.833Z,11.20
2023-01-11T11:54:37.438Z,8.00
2023-01-11T11:57:41.943Z,5.90
2023-01-11T12:00:32.412Z,7.80
2023-01-11T12:03:20.277Z,7.60
2023-01-11T12:06:00.974Z,9.90
2023-01-11T12:08:32.926Z,11.70
2023-01-11T12:11:08.427Z,8.30
2023-01-11T12:13:40.160Z,19.90
2023-01-11T12:16:23.522Z,15.40
2023-01-11T12:18:53.050Z,9.10
2023-01-11T12:21:32.387Z,13.70
2023-01-11T12:24:19.611Z,8.60
2023-01-11T12:27:35.404Z,16.10
2023-01-11T12:30:10.511Z,18.50
2023-01-11T12:33:00.933Z,13.70
2023-01-11T12:36:08.636Z,10.50
2023-01-11T12:38:51.399Z,17.80
2023-01-11T12:41:57.927Z,11.80
2023-01-11T12:44:38.491Z,14.40
2023-01-11T12:47:48.053Z,13.40
2023-01-11T12:50:29.420Z,16.50
2023-01-11T12:53:10.302Z,22.00
2023-01-11T12:56:10.223Z,21.10
2023-01-11T12:59:19.353Z,19.30
2023-01-11T13:02:48.926Z,15.20
2023-01-11T13:06:07.699Z,13.00
2023-01-11T13:08:53.452Z,13.80
2023-01-11T13:11:54.249Z,19.00
2023-01-11T13:14:46.091Z,9.50
2023-01-11T13:17:42.416Z,10.50
2023-01-11T13:20:28.925Z,8.90
2023-01-11T13:23:08.371Z,9.00
2023-01-11T13:25:44.380Z,18.80
2023-01-11T13:28:31.229Z,10.20
2023-01-11T13:31:04.098Z,14.40
2023-01-11T13:33:33.107Z,11.10
2023-01-11T13:36:23.233Z,7.20
2023-01-11T13:39:02.241Z,10.00
2023-01-11T13:41:45.253Z,8.80
2023-01-11T13:44:26.985Z,17.60
2023-01-11T13:47:16.863Z,10.30
2023-01-11T13:50:18.803Z,8.90
2023-01-11T13:53:03.606Z,16.70
2023-01-11T13:56:03.377Z,9.50
2023-01-11T13:59:00.040Z,33.90
2023-01-11T14:02:05.469Z,14.40
2023-01-11T14:04:52.392Z,11.70
2023-01-11T14:07:21.066Z,9.70
2023-01-11T14:10:19.161Z,7.40
2023-01-11T14:13:10.678Z,7.10
2023-01-11T14:15:59.471Z,12.80
2023-01-11T14:18:49.718Z,13.70
2023-01-11T14:21:32.533Z,18.80
2023-01-11T14:24:04.022Z,10.20
2023-01-11T14:27:18.585Z,11.90
2023-01-11T14:30:14.585Z,19.20
2023-01-11T14:33:33.245Z,21.80
2023-01-11T14:36:12.881Z,11.20
2023-01-11T14:39:22.219Z,9.40
2023-01-11T14:41:50.804Z,31.00
2023-01-11T14:45:05.674Z,15.80
2023-01-11T14:48:18.608Z,18.00
2023-01-11T14:51:33.926Z,19.10
2023-01-11T14:54:12.292Z,23.20
2023-01-11T14:56:44.183Z,18.20
2023-01-11T14:59:38.930Z,11.40
2023-01-11T15:02:11.643Z,16.60
2023-01-11T15:04:52.957Z,11.70
2023-01-11T15:07:25.195Z,12.50
2023-01-11T15:09:54.400Z,13.20
2023-01-11T15:12:35.574Z,11.40
2023-01-11T15:15:18.898Z,14.00
2023-01-11T15:18:16.582Z,12.80
2023-01-11T15:21:06.955Z,17.90
2023-01-11T15:23:45.689Z,14.30
2023-01-11T15:26:18.101Z,14.50
2023-01-11T15:28:59.641Z,12.20
2023-01-11T15:31:50.591Z,12.20
2023-01-11T15:34:26.324Z,11.50
2023-01-11T15:37:02.567Z,10.80
2023-01-11T15:39:57.074Z,13.20
2023-01-11T15:42:47.250Z,10.10
2023-01-11T15:46:10.047Z,10.40
2023-01-11T15:48:59.807Z,10.00
2023-01-11T15:51:56.434Z,13.80
2023-01-11T15:54:49.691Z,9.90
2023-01-11T15:57:51.969Z,12.30
2023-01-11T16:01:07.843Z,12.10
2023-01-11T16:03:54.318Z,13.90
2023-01-11T16:06:41.395Z,10.80
2023-01-11T16:09:58.513Z,10.50
2023-01-11T16:13:08.259Z,14.10
2023-01-11T16:16:22.998Z,14.70
2023-01-11T16:19:17.148Z,10.10
2023-01-11T16:21:50.159Z,11.50
2023-01-11T16:24:22.185Z,8.90
2023-01-11T16:27:00.404Z,11.10
2023-01-11T16:29:36.414Z,11.50
2023-01-11T16:32:21.347Z,12.40
2023-01-11T16:34:54.215Z,11.20
2023-01-11T16:37:35.421Z,11.80
2023-01-11T16:40:11.540Z,12.50
2023-01-11T16:43:09.537Z,11.50
2023-01-11T16:45:52.321Z,12.10
2023-01-11T16:48:30.091Z,12.80
2023-01-11T16:51:08.434Z,12.40
2023-01-11T16:53:46.267Z,13.60
2023-01-11T16:56:25.849Z,13.20
2023-01-11T16:59:13.926Z,13.10
2023-01-11T17:01:56.161Z,12.60
2023-01-11T17:04:51.344Z,10.80
2023-01-11T17:07:27.951Z,13.10
2023-01-11T17:10:26.016Z,14.20
2023-01-11T17:13:48.143Z,18.40
2023-01-11T17:16:18.241Z,19.30
2023-01-11T17:18:47.231Z,12.20
2023-01-11T17:21:29.230Z,12.70
2023-01-11T17:24:06.275Z,14.30
2023-01-11T17:26:45.176Z,28.20
2023-01-11T17:29:34.212Z,18.40
2023-01-11T17:32:07.615Z,29.00
2023-01-11T17:34:38.298Z,45.60
2023-01-11T17:37:13.091Z,85.00
2023-01-11T17:39:55.366Z,81.30
2023-01-11T17:42:43.424Z,42.50
2023-01-11T17:45:25.782Z,47.30
2023-01-11T17:47:55.835Z,20.00
2023-01-11T17:50:31.925Z,31.70
2023-01-11T17:53:32.500Z,17.40
2023-01-11T17:56:08.005Z,13.00
2023-01-11T17:58:39.625Z,11.20
2023-01-11T18:01:22.689Z,10.00
2023-01-11T18:03:58.032Z,10.20
2023-01-11T18:06:40.381Z,9.10
2023-01-11T18:09:31.113Z,9.80
2023-01-11T18:12:32.974Z,7.90
2023-01-11T18:15:05.967Z,10.00
2023-01-11T18:17:39.160Z,11.00
2023-01-11T18:20:10.923Z,10.00
2023-01-11T18:22:42.129Z,11.80
2023-01-11T18:25:24.889Z,8.90
2023-01-11T18:28:16.295Z,11.60
2023-01-11T18:30:52.637Z,9.50
2023-01-11T18:33:28.519Z,8.80
2023-01-11T18:36:00.601Z,9.20
2023-01-11T18:38:35.345Z,12.50
2023-01-11T18:41:26.537Z,15.50
2023-01-11T18:43:56.043Z,13.20
2023-01-11T18:46:24.715Z,25.40
2023-01-11T18:48:53.756Z,31.50
2023-01-11T18:51:39.911Z,11.00
2023-01-11T18:54:16.137Z,12.40
2023-01-11T18:56:44.862Z,11.80
2023-01-11T18:59:13.957Z,14.00
2023-01-11T19:01:56.172Z,15.80
2023-01-11T19:04:30.289Z,15.60
2023-01-11T19:06:58.868Z,15.70
2023-01-11T19:09:27.449Z,17.10
2023-01-11T19:11:56.335Z,16.00
2023-01-11T19:14:24.926Z,18.70
2023-01-11T19:16:53.612Z,15.10
2023-01-11T19:19:22.717Z,29.80
2023-01-11T19:21:51.698Z,31.60
2023-01-11T19:24:20.385Z,19.10
2023-01-11T19:26:50.084Z,14.70
2023-01-11T19:29:19.339Z,16.80
2023-01-11T19:31:49.875Z,15.70
2023-01-11T19:34:20.013Z,14.10
2023-01-11T19:36:50.522Z,13.80
2023-01-11T19:39:19.783Z,11.70
2023-01-11T19:41:54.342Z,9.90
2023-01-11T19:44:40.602Z,12.50
2023-01-11T19:47:13.523Z,11.10
2023-01-11T19:49:43.631Z,12.70
2023-01-11T19:52:19.302Z,10.70
2023-01-11T19:54:49.228Z,12.60
2023-01-11T19:57:22.770Z,12.10
2023-01-11T19:59:51.469Z,10.70
2023-01-11T20:02:22.079Z,10.70
2023-01-11T20:04:50.777Z,9.20
2023-01-11T20:07:20.593Z,9.50
2023-01-11T20:09:49.284Z,10.30
2023-01-11T20:12:17.972Z,8.90
2023-01-11T20:14:46.958Z,9.00
2023-01-11T20:17:21.190Z,9.50
2023-01-11T20:19:54.788Z,10.90
2023-01-11T20:22:24.537Z,7.90
2023-01-11T20:24:53.184Z,8.40
2023-01-11T20:27:22.810Z,8.90
2023-01-11T20:29:51.877Z,13.60
2023-01-11T20:32:40.914Z,16.90
2023-01-11T20:35:11.161Z,12.80
2023-01-11T20:37:39.760Z,11.70
2023-01-11T20:40:12.465Z,13.00
2023-01-11T20:42:42.655Z,11.30
2023-01-11T20:45:11.666Z,11.60
2023-01-11T20:47:40.185Z,10.40
2023-01-11T20:50:09.983Z,8.60
2023-01-11T20:52:38.540Z,9.70
2023-01-11T20:55:08.044Z,9.10
2023-01-11T20:57:36.620Z,9.70
2023-01-11T21:02:38.467Z,9.40
2023-01-11T21:05:08.003Z,8.50
2023-01-11T21:07:36.901Z,8.10
2023-01-11T21:10:06.600Z,8.40
2023-01-11T21:12:35.704Z,10.10
2023-01-11T21:15:05.112Z,8.90
2023-01-11T21:17:33.792Z,11.10
2023-01-11T21:20:02.483Z,12.40
2023-01-11T21:22:31.173Z,10.30
2023-01-11T21:24:59.854Z,9.70
2023-01-11T21:27:28.645Z,12.10
2023-01-11T21:29:57.536Z,10.50
2023-01-11T21:32:26.122Z,12.00
2023-01-11T21:34:55.121Z,13.60
2023-01-11T21:37:24.850Z,11.40
2023-01-11T21:39:53.618Z,9.70
2023-01-11T21:42:22.331Z,12.00
2023-01-11T21:44:50.998Z,12.50
2023-01-11T21:47:20.949Z,12.00
2023-01-11T21:49:50.205Z,11.10
2023-01-11T21:52:19.000Z,13.30
2023-01-11T21:54:48.809Z,12.30
2023-01-11T21:57:17.396Z,11.40
2023-01-11T21:59:46.100Z,10.90
2023-01-11T22:02:14.782Z,11.00
2023-01-11T22:04:43.353Z,10.00
2023-01-11T22:07:12.040Z,10.20
2023-01-11T22:09:53.232Z,9.80
2023-01-11T22:12:29.482Z,10.30
2023-01-11T22:14:58.305Z,10.80
2023-01-11T22:17:27.879Z,10.50
2023-01-11T22:19:56.465Z,11.40
2023-01-11T22:22:25.763Z,9.80
2023-01-11T22:24:54.768Z,11.90
2023-01-11T22:27:23.552Z,11.60
2023-01-11T22:29:53.469Z,11.40
2023-01-11T22:32:22.056Z,9.90
2023-01-11T22:34:51.163Z,11.20
2023-01-11T22:37:20.556Z,11.10
2023-01-11T22:39:49.566Z,9.90
2023-01-11T22:42:18.648Z,9.20
2023-01-11T22:44:47.534Z,10.80
2023-01-11T22:47:17.015Z,11.50
2023-01-11T22:49:46.033Z,9.10
2023-01-11T22:52:15.052Z,8.60
2023-01-11T22:54:44.473Z,9.70
2023-01-11T22:57:14.157Z,12.10
2023-01-11T22:59:43.234Z,10.30
2023-01-11T23:02:13.355Z,13.40
2023-01-11T23:04:42.044Z,10.80
2023-01-11T23:07:10.966Z,9.90
2023-01-11T23:09:39.726Z,9.30
2023-01-11T23:12:28.593Z,10.30
2023-01-11T23:14:57.474Z,10.40
2023-01-11T23:17:27.293Z,9.20
2023-01-11T23:19:55.914Z,11.60
2023-01-11T23:22:25.486Z,8.50
2023-01-11T23:24:54.272Z,11.00
2023-01-11T23:27:23.377Z,8.80
2023-01-11T23:29:52.785Z,8.90
2023-01-11T23:32:21.865Z,9.20
2023-01-11T23:34:50.776Z,10.20
2023-01-11T23:37:19.877Z,13.00
2023-01-11T23:39:48.861Z,10.70
2023-01-11T23:42:26.963Z,10.30
2023-01-11T23:44:57.797Z,9.30
2023-01-11T23:47:30.000Z,11.10
2023-01-11T23:50:01.109Z,9.50
2023-01-11T23:52:32.717Z,9.00
2023-01-11T23:55:01.574Z,10.70
2023-01-11T23:57:30.548Z,10.40
2023-01-11T23:59:59.556Z,9.00
